createdAt,value
2018-01-22T00:00:00.936Z,3.65
2018-01-22T00:01:02.791Z,3.51
2018-01-22T00:02:04.645Z,3.65
2018-01-22T00:03:06.439Z,3.57
2018-01-22T00:04:08.247Z,3.66
2018-01-22T00:05:10.116Z,3.62
2018-01-22T00:06:11.975Z,3.55
2018-01-22T00:07:13.837Z,3.58
2018-01-22T00:08:27.983Z,3.61
2018-01-22T00:09:29.849Z,3.51
2018-01-22T00:10:31.734Z,3.48
2018-01-22T00:11:33.606Z,3.35
2018-01-22T00:12:35.404Z,3.40
2018-01-22T00:13:37.223Z,3.40
2018-01-22T00:14:39.107Z,3.31
2018-01-22T00:15:40.985Z,3.47
2018-01-22T00:16:42.841Z,3.43
2018-01-22T00:17:56.994Z,3.40
2018-01-22T00:18:58.876Z,3.42
2018-01-22T00:20:00.754Z,3.45
2018-01-22T00:21:02.608Z,3.50
2018-01-22T00:22:04.399Z,3.47
2018-01-22T00:23:06.198Z,3.51
2018-01-22T00:24:08.058Z,3.33
2018-01-22T00:25:09.935Z,3.33
2018-01-22T00:26:11.795Z,3.40
2018-01-22T00:27:25.995Z,3.35
2018-01-22T00:28:27.872Z,3.28
2018-01-22T00:29:29.733Z,3.24
2018-01-22T00:30:31.587Z,3.21
2018-01-22T00:31:33.388Z,3.24
2018-01-22T00:32:35.182Z,3.13
2018-01-22T00:33:37.041Z,3.11
2018-01-22T00:34:38.890Z,3.13
2018-01-22T00:35:40.750Z,3.08
2018-01-22T00:36:54.900Z,3.05
2018-01-22T00:37:56.783Z,3.05
2018-01-22T00:38:58.666Z,2.99
2018-01-22T00:40:00.545Z,3.03
2018-01-22T00:41:02.343Z,2.97
2018-01-22T00:42:04.158Z,2.96
2018-01-22T00:43:06.034Z,3.00
2018-01-22T00:44:07.893Z,2.89
2018-01-22T00:45:09.747Z,2.89
2018-01-22T00:46:23.872Z,2.85
2018-01-22T00:47:25.737Z,2.97
2018-01-22T00:48:27.590Z,2.93
2018-01-22T00:49:29.448Z,2.81
2018-01-22T00:50:31.235Z,2.79
2018-01-22T00:51:33.027Z,2.87
2018-01-22T00:52:34.886Z,2.87
2018-01-22T00:53:36.769Z,2.72
2018-01-22T00:54:38.645Z,2.67
2018-01-22T00:55:52.770Z,2.75
2018-01-22T00:56:54.635Z,2.69
2018-01-22T00:57:56.512Z,2.64
2018-01-22T00:58:58.371Z,2.60
2018-01-22T01:00:00.166Z,2.63
2018-01-22T01:01:01.960Z,2.54
2018-01-22T01:02:03.817Z,2.49
2018-01-22T01:03:05.678Z,2.66
2018-01-22T01:04:07.557Z,2.56
2018-01-22T01:05:21.706Z,2.53
2018-01-22T01:06:23.563Z,2.53
2018-01-22T01:07:25.424Z,2.56
2018-01-22T01:08:27.280Z,2.43
2018-01-22T01:09:29.095Z,2.66
2018-01-22T01:10:30.903Z,2.46
2018-01-22T01:11:32.765Z,2.52
2018-01-22T01:12:34.647Z,2.42
2018-01-22T01:13:36.506Z,2.53
2018-01-22T01:14:50.655Z,2.53
2018-01-22T01:15:52.538Z,2.56
2018-01-22T01:16:54.422Z,2.49
2018-01-22T01:17:56.300Z,2.56
2018-01-22T01:18:58.116Z,2.52
2018-01-22T01:19:59.933Z,2.45
2018-01-22T01:21:01.812Z,2.48
2018-01-22T01:22:03.675Z,2.52
2018-01-22T01:23:05.551Z,2.49
2018-01-22T01:24:19.710Z,2.49
2018-01-22T01:25:21.582Z,2.43
2018-01-22T01:26:23.468Z,2.39
2018-01-22T01:27:25.347Z,2.39
2018-01-22T01:28:27.155Z,2.34
2018-01-22T01:29:28.954Z,2.39
2018-01-22T01:30:30.831Z,2.30
2018-01-22T01:31:32.697Z,2.31
2018-01-22T01:32:34.576Z,2.23
2018-01-22T01:33:48.700Z,2.21
2018-01-22T01:34:50.557Z,2.25
2018-01-22T01:35:52.413Z,2.12
2018-01-22T01:36:54.275Z,2.27
2018-01-22T01:37:56.068Z,2.21
2018-01-22T01:38:57.878Z,2.09
2018-01-22T01:39:59.744Z,2.10
2018-01-22T01:41:01.624Z,2.18
2018-01-22T01:42:03.504Z,2.09
2018-01-22T01:43:17.649Z,2.10
2018-01-22T01:44:19.527Z,2.07
2018-01-22T01:45:21.389Z,2.12
2018-01-22T01:46:23.272Z,2.12
2018-01-22T01:47:25.078Z,2.10
2018-01-22T01:48:26.875Z,2.07
2018-01-22T01:49:28.757Z,2.06
2018-01-22T01:50:30.617Z,2.10
2018-01-22T01:51:32.496Z,2.05
2018-01-22T01:52:46.645Z,2.07
2018-01-22T01:53:48.529Z,2.09
2018-01-22T01:54:50.400Z,2.07
2018-01-22T01:55:52.258Z,2.12
2018-01-22T01:56:54.051Z,2.06
2018-01-22T01:57:55.865Z,2.10
2018-01-22T01:58:57.722Z,2.06
2018-01-22T01:59:59.585Z,2.03
2018-01-22T02:01:01.460Z,1.91
2018-01-22T02:02:15.658Z,1.88
2018-01-22T02:03:17.536Z,1.69
2018-01-22T02:04:19.403Z,1.65
2018-01-22T02:05:21.285Z,1.60
2018-01-22T02:06:23.074Z,1.62
2018-01-22T02:07:24.885Z,1.60
2018-01-22T02:08:26.742Z,1.62
2018-01-22T02:09:28.623Z,1.72
2018-01-22T02:10:30.505Z,1.70
2018-01-22T02:11:44.654Z,1.79
2018-01-22T02:12:46.513Z,1.81
2018-01-22T02:13:48.394Z,1.81
2018-01-22T02:14:50.273Z,1.80
2018-01-22T02:15:52.067Z,1.73
2018-01-22T02:16:53.886Z,1.76
2018-01-22T02:17:55.767Z,1.65
2018-01-22T02:18:57.649Z,1.63
2018-01-22T02:19:59.504Z,1.72
2018-01-22T02:21:13.647Z,1.76
2018-01-22T02:22:15.510Z,1.72
2018-01-22T02:23:17.391Z,1.63
2018-01-22T02:24:19.280Z,1.59
2018-01-22T02:25:21.076Z,1.63
2018-01-22T02:26:22.872Z,1.60
2018-01-22T02:27:24.750Z,1.66
2018-01-22T02:28:26.617Z,1.79
2018-01-22T02:29:28.488Z,1.79
2018-01-22T02:30:42.680Z,1.81
2018-01-22T02:31:44.541Z,1.83
2018-01-22T02:32:46.423Z,1.91
2018-01-22T02:33:48.298Z,1.95
2018-01-22T02:34:50.094Z,1.90
2018-01-22T02:35:51.913Z,1.84
2018-01-22T02:36:53.798Z,1.87
2018-01-22T02:37:55.670Z,1.87
2018-01-22T02:38:57.529Z,1.80
2018-01-22T02:40:11.660Z,1.84
2018-01-22T02:41:13.531Z,1.83
2018-01-22T02:42:15.393Z,1.90
2018-01-22T02:43:17.275Z,1.87
2018-01-22T02:44:19.090Z,1.99
2018-01-22T02:45:20.905Z,2.02
2018-01-22T02:46:22.760Z,1.98
2018-01-22T02:47:24.636Z,1.93
2018-01-22T02:48:26.494Z,1.95
2018-01-22T02:49:40.669Z,2.03
2018-01-22T02:50:42.542Z,2.02
2018-01-22T02:51:44.399Z,1.98
2018-01-22T02:52:46.257Z,1.98
2018-01-22T02:53:48.052Z,2.00
2018-01-22T02:54:49.849Z,1.99
2018-01-22T02:55:51.697Z,1.91
2018-01-22T02:56:53.554Z,1.93
2018-01-22T02:57:55.414Z,1.88
2018-01-22T02:59:09.556Z,1.95
2018-01-22T03:00:11.416Z,1.98
2018-01-22T03:01:13.275Z,2.02
2018-01-22T03:02:15.151Z,2.07
2018-01-22T03:03:16.947Z,2.07
2018-01-22T03:04:18.761Z,2.03
2018-01-22T03:05:20.638Z,2.03
2018-01-22T03:06:22.502Z,2.05
2018-01-22T03:07:24.371Z,1.99
2018-01-22T03:08:38.503Z,2.09
2018-01-22T03:09:40.377Z,2.07
2018-01-22T03:10:42.234Z,2.12
2018-01-22T03:11:44.089Z,2.05
2018-01-22T03:12:45.887Z,1.98
2018-01-22T03:13:47.684Z,1.98
2018-01-22T03:14:49.559Z,2.07
2018-01-22T03:15:51.421Z,2.07
2018-01-22T03:16:53.342Z,2.14
2018-01-22T03:18:07.433Z,2.07
2018-01-22T03:19:09.292Z,2.12
2018-01-22T03:20:11.148Z,2.12
2018-01-22T03:21:13.008Z,2.07
2018-01-22T03:22:14.819Z,2.10
2018-01-22T03:23:16.613Z,2.05
2018-01-22T03:24:18.472Z,2.10
2018-01-22T03:25:20.351Z,2.14
2018-01-22T03:26:22.210Z,2.10
2018-01-22T03:27:36.330Z,2.14
2018-01-22T03:28:38.192Z,2.18
2018-01-22T03:29:40.045Z,2.12
2018-01-22T03:30:41.900Z,2.09
2018-01-22T03:31:43.698Z,2.07
2018-01-22T03:32:45.509Z,2.00
2018-01-22T03:33:47.371Z,1.90
2018-01-22T03:34:49.257Z,1.84
2018-01-22T03:35:51.133Z,1.84
2018-01-22T03:37:05.292Z,1.77
2018-01-22T03:38:07.168Z,1.72
2018-01-22T03:39:09.047Z,1.76
2018-01-22T03:40:10.924Z,1.83
2018-01-22T03:41:12.728Z,1.84
2018-01-22T03:42:14.528Z,1.86
2018-01-22T03:43:16.403Z,1.87
2018-01-22T03:44:18.263Z,1.91
2018-01-22T03:45:20.141Z,2.00
2018-01-22T03:46:34.288Z,2.06
2018-01-22T03:47:36.138Z,2.09
2018-01-22T03:48:38.001Z,2.16
2018-01-22T03:49:39.876Z,2.24
2018-01-22T03:50:41.670Z,2.20
2018-01-22T03:51:43.462Z,2.21
2018-01-22T03:52:45.321Z,2.30
2018-01-22T03:53:47.199Z,2.27
2018-01-22T03:54:49.060Z,2.21
2018-01-22T03:56:03.209Z,2.23
2018-01-22T03:57:05.088Z,2.20
2018-01-22T03:58:06.968Z,2.20
2018-01-22T03:59:08.846Z,2.17
2018-01-22T04:00:10.643Z,2.03
2018-01-22T04:01:12.456Z,2.12
2018-01-22T04:02:14.313Z,2.06
2018-01-22T04:03:16.189Z,2.14
2018-01-22T04:04:18.047Z,2.10
2018-01-22T04:05:32.242Z,2.17
2018-01-22T04:06:34.128Z,2.16
2018-01-22T04:07:35.983Z,2.17
2018-01-22T04:08:37.842Z,2.09
2018-01-22T04:09:39.637Z,1.95
2018-01-22T04:10:41.422Z,2.03
2018-01-22T04:11:43.277Z,1.95
2018-01-22T04:12:45.132Z,1.91
2018-01-22T04:13:46.992Z,1.86
2018-01-22T04:15:01.131Z,1.69
2018-01-22T04:16:02.986Z,1.63
2018-01-22T04:17:04.850Z,1.65
2018-01-22T04:18:06.699Z,1.62
2018-01-22T04:19:08.495Z,1.55
2018-01-22T04:20:10.289Z,1.68
2018-01-22T04:21:12.170Z,1.73
2018-01-22T04:22:14.050Z,1.84
2018-01-22T04:23:15.909Z,1.83
2018-01-22T04:24:30.061Z,1.91
2018-01-22T04:25:31.916Z,1.87
2018-01-22T04:26:33.789Z,1.90
2018-01-22T04:27:35.645Z,1.84
2018-01-22T04:28:37.446Z,1.80
2018-01-22T04:29:39.263Z,1.84
2018-01-22T04:30:41.136Z,1.83
2018-01-22T04:31:42.998Z,1.68
2018-01-22T04:32:44.852Z,1.66
2018-01-22T04:33:59.042Z,1.68
2018-01-22T04:35:00.900Z,1.70
2018-01-22T04:36:02.752Z,1.65
2018-01-22T04:37:04.607Z,1.59
2018-01-22T04:38:06.398Z,1.52
2018-01-22T04:39:08.196Z,1.58
2018-01-22T04:40:10.076Z,1.45
2018-01-22T04:41:11.956Z,1.45
2018-01-22T04:42:13.837Z,1.33
2018-01-22T04:43:27.983Z,1.34
2018-01-22T04:44:29.856Z,1.32
2018-01-22T04:45:31.716Z,1.29
2018-01-22T04:46:33.569Z,1.33
2018-01-22T04:47:35.361Z,1.32
2018-01-22T04:48:37.159Z,1.20
2018-01-22T04:49:39.037Z,1.29
2018-01-22T04:50:40.921Z,1.33
2018-01-22T04:51:42.800Z,1.29
2018-01-22T04:52:56.995Z,1.24
2018-01-22T04:53:58.851Z,1.29
2018-01-22T04:55:00.730Z,1.40
2018-01-22T04:56:02.582Z,1.45
2018-01-22T04:57:04.385Z,1.32
2018-01-22T04:58:06.194Z,1.23
2018-01-22T04:59:08.056Z,1.29
2018-01-22T05:00:09.933Z,1.27
2018-01-22T05:01:11.787Z,1.23
2018-01-22T05:02:25.969Z,1.36
2018-01-22T05:03:27.845Z,1.33
2018-01-22T05:04:29.701Z,1.40
2018-01-22T05:05:31.576Z,1.36
2018-01-22T05:06:33.367Z,1.42
2018-01-22T05:07:35.160Z,1.45
2018-01-22T05:08:37.019Z,1.33
2018-01-22T05:09:38.896Z,1.44
2018-01-22T05:10:40.713Z,1.36
2018-01-22T05:11:54.854Z,1.45
2018-01-22T05:12:56.715Z,1.37
2018-01-22T05:13:58.597Z,1.42
2018-01-22T05:15:00.473Z,1.30
2018-01-22T05:16:02.265Z,1.30
2018-01-22T05:17:04.056Z,1.24
2018-01-22T05:18:05.912Z,1.23
2018-01-22T05:19:07.771Z,1.26
2018-01-22T05:20:09.623Z,1.23
2018-01-22T05:21:23.752Z,1.11
2018-01-22T05:22:25.628Z,1.04
2018-01-22T05:23:27.492Z,0.98
2018-01-22T05:24:29.365Z,0.98
2018-01-22T05:25:31.160Z,0.93
2018-01-22T05:26:32.962Z,0.93
2018-01-22T05:27:34.841Z,0.90
2018-01-22T05:28:36.692Z,0.80
2018-01-22T05:29:38.548Z,0.90
2018-01-22T05:30:52.669Z,0.80
2018-01-22T05:31:54.528Z,0.80
2018-01-22T05:32:56.405Z,0.80
2018-01-22T05:33:58.258Z,0.83
2018-01-22T05:35:00.054Z,0.78
2018-01-22T05:36:01.841Z,0.83
2018-01-22T05:37:03.699Z,0.76
2018-01-22T05:38:05.579Z,0.83
2018-01-22T05:39:07.459Z,0.90
2018-01-22T05:40:21.579Z,0.96
2018-01-22T05:41:23.435Z,0.91
2018-01-22T05:42:25.289Z,1.06
2018-01-22T05:43:27.143Z,1.09
2018-01-22T05:44:28.935Z,1.04
2018-01-22T05:45:30.732Z,1.11
2018-01-22T05:46:32.573Z,0.96
2018-01-22T05:47:34.447Z,1.08
2018-01-22T05:48:36.310Z,1.14
2018-01-22T05:49:50.452Z,1.15
2018-01-22T05:50:52.306Z,1.06
2018-01-22T05:51:54.170Z,1.12
2018-01-22T05:52:56.045Z,1.11
2018-01-22T05:53:57.838Z,1.22
2018-01-22T05:54:59.632Z,1.20
2018-01-22T05:56:01.511Z,1.26
2018-01-22T05:57:03.387Z,1.26
2018-01-22T05:58:05.244Z,1.24
2018-01-22T05:59:19.372Z,1.18
2018-01-22T06:00:21.245Z,1.27
2018-01-22T06:01:23.108Z,1.22
2018-01-22T06:02:24.984Z,1.29
2018-01-22T06:03:26.776Z,1.34
2018-01-22T06:04:28.572Z,1.26
2018-01-22T06:05:30.446Z,1.36
2018-01-22T06:06:32.311Z,1.26
2018-01-22T06:07:34.224Z,1.36
2018-01-22T06:08:48.407Z,1.32
2018-01-22T06:09:50.270Z,1.23
2018-01-22T06:10:52.144Z,1.18
2018-01-22T06:11:53.995Z,1.23
2018-01-22T06:12:55.794Z,1.14
2018-01-22T06:13:57.580Z,1.12
2018-01-22T06:14:59.441Z,1.12
2018-01-22T06:16:01.301Z,1.04
2018-01-22T06:17:03.184Z,1.08
2018-01-22T06:18:17.330Z,1.16
2018-01-22T06:19:19.211Z,1.23
2018-01-22T06:20:21.082Z,1.26
2018-01-22T06:21:22.940Z,1.22
2018-01-22T06:22:24.733Z,1.24
2018-01-22T06:23:26.549Z,1.30
2018-01-22T06:24:28.427Z,1.33
2018-01-22T06:25:30.287Z,1.34
2018-01-22T06:26:32.164Z,1.36
2018-01-22T06:27:46.309Z,1.27
2018-01-22T06:28:48.165Z,1.29
2018-01-22T06:29:50.020Z,1.23
2018-01-22T06:30:51.876Z,1.26
2018-01-22T06:31:53.677Z,1.26
2018-01-22T06:32:55.495Z,1.37
2018-01-22T06:33:57.372Z,1.37
2018-01-22T06:34:59.233Z,1.36
2018-01-22T06:36:01.117Z,1.37
2018-01-22T06:37:15.237Z,1.44
2018-01-22T06:38:17.094Z,1.42
2018-01-22T06:39:18.953Z,1.44
2018-01-22T06:40:20.808Z,1.40
2018-01-22T06:41:22.598Z,1.33
2018-01-22T06:42:24.399Z,1.37
2018-01-22T06:43:26.275Z,1.40
2018-01-22T06:44:28.133Z,1.33
2018-01-22T06:45:29.987Z,1.37
2018-01-22T06:46:44.111Z,1.36
2018-01-22T06:47:45.974Z,1.36
2018-01-22T06:48:47.850Z,1.37
2018-01-22T06:49:49.704Z,1.36
2018-01-22T06:50:51.534Z,1.24
2018-01-22T06:51:53.328Z,1.30
2018-01-22T06:52:55.186Z,1.33
2018-01-22T06:53:57.052Z,1.27
2018-01-22T06:54:58.933Z,1.27
2018-01-22T06:56:13.086Z,1.27
2018-01-22T06:57:14.943Z,1.29
2018-01-22T06:58:16.803Z,1.33
2018-01-22T06:59:18.656Z,1.41
2018-01-22T07:00:20.461Z,1.41
2018-01-22T07:01:22.256Z,1.42
2018-01-22T07:02:24.135Z,1.44
2018-01-22T07:03:25.994Z,1.48
2018-01-22T07:04:27.853Z,1.55
2018-01-22T07:05:42.028Z,1.50
2018-01-22T07:06:43.887Z,1.48
2018-01-22T07:07:45.771Z,1.47
2018-01-22T07:08:47.673Z,1.36
2018-01-22T07:09:49.433Z,1.37
2018-01-22T07:10:51.251Z,1.41
2018-01-22T07:11:53.133Z,1.52
2018-01-22T07:12:55.011Z,1.60
2018-01-22T07:13:56.872Z,1.62
2018-01-22T07:15:11.003Z,1.62
2018-01-22T07:16:12.890Z,1.63
2018-01-22T07:17:14.745Z,1.68
2018-01-22T07:18:16.633Z,1.55
2018-01-22T07:19:18.457Z,1.41
2018-01-22T07:20:20.272Z,1.40
2018-01-22T07:21:22.129Z,1.36
2018-01-22T07:22:23.985Z,1.30
2018-01-22T07:23:25.844Z,1.20
2018-01-22T07:24:40.023Z,1.22
2018-01-22T07:25:41.908Z,1.20
2018-01-22T07:26:43.791Z,1.34
2018-01-22T07:27:45.653Z,1.37
2018-01-22T07:28:47.455Z,1.32
2018-01-22T07:29:49.247Z,1.42
2018-01-22T07:30:51.107Z,1.45
2018-01-22T07:31:52.989Z,1.42
2018-01-22T07:32:54.845Z,1.45
2018-01-22T07:34:08.978Z,1.52
2018-01-22T07:35:10.834Z,1.59
2018-01-22T07:36:12.698Z,1.62
2018-01-22T07:37:14.557Z,1.77
2018-01-22T07:38:16.376Z,1.83
2018-01-22T07:39:18.171Z,1.84
2018-01-22T07:40:20.030Z,1.80
2018-01-22T07:41:21.892Z,1.83
2018-01-22T07:42:23.757Z,1.88
2018-01-22T07:43:37.956Z,1.91
2018-01-22T07:44:39.840Z,2.00
2018-01-22T07:45:41.722Z,1.98
2018-01-22T07:46:43.588Z,2.05
2018-01-22T07:47:45.394Z,1.95
2018-01-22T07:48:47.213Z,1.98
2018-01-22T07:49:49.085Z,1.87
2018-01-22T07:50:50.969Z,1.86
2018-01-22T07:51:52.853Z,1.87
2018-01-22T07:53:07.004Z,1.80
2018-01-22T07:54:08.865Z,1.70
2018-01-22T07:55:10.748Z,1.59
2018-01-22T07:56:12.606Z,1.54
2018-01-22T07:57:14.412Z,1.63
2018-01-22T07:58:16.225Z,1.63
2018-01-22T07:59:18.091Z,1.65
2018-01-22T08:00:19.956Z,1.59
2018-01-22T08:01:21.838Z,1.63
2018-01-22T08:02:35.962Z,1.51
2018-01-22T08:03:37.826Z,1.50
2018-01-22T08:04:39.702Z,1.42
2018-01-22T08:05:41.598Z,1.33
2018-01-22T08:06:43.400Z,1.41
2018-01-22T08:07:45.222Z,1.40
2018-01-22T08:08:47.106Z,1.34
2018-01-22T08:09:48.964Z,1.42
2018-01-22T08:10:50.830Z,1.45
2018-01-22T08:12:05.013Z,1.62
2018-01-22T08:13:06.901Z,1.62
2018-01-22T08:14:08.760Z,1.72
2018-01-22T08:15:10.624Z,1.72
2018-01-22T08:16:12.444Z,1.81
2018-01-22T08:17:14.242Z,1.87
2018-01-22T08:18:16.103Z,1.84
2018-01-22T08:19:17.967Z,1.83
2018-01-22T08:20:19.852Z,1.68
2018-01-22T08:21:33.963Z,1.63
2018-01-22T08:22:35.847Z,1.54
2018-01-22T08:23:37.708Z,1.60
2018-01-22T08:24:39.573Z,1.50
2018-01-22T08:25:41.374Z,1.51
2018-01-22T08:26:43.172Z,1.41
2018-01-22T08:27:45.054Z,1.41
2018-01-22T08:28:46.922Z,1.45
2018-01-22T08:29:48.804Z,1.36
2018-01-22T08:31:03.046Z,1.33
2018-01-22T08:32:04.846Z,1.32
2018-01-22T08:33:06.705Z,1.34
2018-01-22T08:34:08.567Z,1.36
2018-01-22T08:35:10.370Z,1.27
2018-01-22T08:36:12.171Z,1.29
2018-01-22T08:37:14.033Z,1.33
2018-01-22T08:38:15.916Z,1.42
2018-01-22T08:39:17.780Z,1.36
2018-01-22T08:40:31.983Z,1.33
2018-01-22T08:41:33.869Z,1.34
2018-01-22T08:42:35.754Z,1.47
2018-01-22T08:43:37.616Z,1.44
2018-01-22T08:44:39.418Z,1.47
2018-01-22T08:45:41.240Z,1.58
2018-01-22T08:46:43.134Z,1.58
2018-01-22T08:47:45.017Z,1.45
2018-01-22T08:48:46.901Z,1.54
2018-01-22T08:50:01.059Z,1.60
2018-01-22T08:51:02.937Z,1.59
2018-01-22T08:52:04.799Z,1.80
2018-01-22T08:53:06.663Z,1.86
2018-01-22T08:54:08.467Z,1.86
2018-01-22T08:55:10.291Z,1.84
2018-01-22T08:56:12.172Z,1.87
2018-01-22T08:57:14.038Z,1.91
2018-01-22T08:58:15.896Z,2.02
2018-01-22T08:59:30.032Z,2.09
2018-01-22T09:00:31.893Z,2.06
2018-01-22T09:01:33.753Z,2.03
2018-01-22T09:02:35.615Z,1.99
2018-01-22T09:03:37.412Z,2.06
2018-01-22T09:04:39.211Z,2.16
2018-01-22T09:05:41.075Z,2.12
2018-01-22T09:06:42.940Z,2.16
2018-01-22T09:07:44.797Z,2.27
2018-01-22T09:08:58.979Z,2.48
2018-01-22T09:10:00.861Z,2.54
2018-01-22T09:11:02.727Z,2.67
2018-01-22T09:12:04.588Z,2.71
2018-01-22T09:13:06.389Z,2.75
2018-01-22T09:14:08.188Z,2.79
2018-01-22T09:15:10.075Z,2.84
2018-01-22T09:16:11.959Z,2.81
2018-01-22T09:17:13.825Z,2.85
2018-01-22T09:18:27.972Z,2.85
2018-01-22T09:19:29.832Z,2.95
2018-01-22T09:20:31.693Z,2.97
2018-01-22T09:21:33.562Z,3.05
2018-01-22T09:22:35.359Z,3.02
2018-01-22T09:23:37.157Z,3.05
2018-01-22T09:24:39.024Z,3.02
2018-01-22T09:25:40.918Z,3.02
2018-01-22T09:26:42.794Z,3.02
2018-01-22T09:27:56.976Z,2.82
2018-01-22T09:28:58.843Z,2.95
2018-01-22T09:30:00.708Z,2.92
2018-01-22T09:31:02.564Z,2.90
2018-01-22T09:32:04.372Z,2.96
2018-01-22T09:33:06.173Z,3.08
2018-01-22T09:34:08.037Z,3.02
2018-01-22T09:35:09.922Z,3.05
2018-01-22T09:36:11.784Z,3.15
2018-01-22T09:37:25.972Z,3.26
2018-01-22T09:38:27.857Z,3.36
2018-01-22T09:39:29.746Z,3.43
2018-01-22T09:40:31.635Z,3.54
2018-01-22T09:41:33.435Z,3.57
2018-01-22T09:42:35.256Z,3.60
2018-01-22T09:43:37.140Z,3.58
2018-01-22T09:44:39.002Z,3.68
2018-01-22T09:45:40.862Z,3.75
2018-01-22T09:46:55.041Z,3.80
2018-01-22T09:47:56.908Z,3.80
2018-01-22T09:48:58.794Z,3.78
2018-01-22T09:50:00.656Z,3.84
2018-01-22T09:51:02.461Z,3.78
2018-01-22T09:52:04.286Z,3.94
2018-01-22T09:53:06.174Z,4.06
2018-01-22T09:54:08.061Z,4.16
2018-01-22T09:55:09.923Z,4.16
2018-01-22T09:56:24.052Z,4.12
2018-01-22T09:57:25.919Z,4.08
2018-01-22T09:58:27.803Z,4.11
2018-01-22T09:59:29.706Z,4.12
2018-01-22T10:00:31.484Z,4.08
2018-01-22T10:01:33.285Z,4.06
2018-01-22T10:02:35.152Z,4.06
2018-01-22T10:03:37.042Z,4.02
2018-01-22T10:04:38.930Z,3.94
2018-01-22T10:05:53.086Z,3.83
2018-01-22T10:06:54.968Z,3.91
2018-01-22T10:07:56.836Z,3.78
2018-01-22T10:08:58.707Z,3.79
2018-01-22T10:10:00.522Z,3.84
2018-01-22T10:11:02.326Z,3.84
2018-01-22T10:12:04.212Z,3.79
2018-01-22T10:13:06.103Z,3.83
2018-01-22T10:14:07.986Z,3.87
2018-01-22T10:15:22.119Z,3.96
2018-01-22T10:16:24.001Z,3.97
2018-01-22T10:17:25.866Z,4.04
2018-01-22T10:18:27.733Z,4.04
2018-01-22T10:19:29.533Z,4.04
2018-01-22T10:20:31.329Z,4.06
2018-01-22T10:21:33.194Z,4.00
2018-01-22T10:22:35.067Z,4.12
2018-01-22T10:23:36.952Z,4.05
2018-01-22T10:24:51.108Z,3.98
2018-01-22T10:25:52.994Z,3.84
2018-01-22T10:26:54.855Z,3.76
2018-01-22T10:27:56.716Z,3.70
2018-01-22T10:28:58.526Z,3.58
2018-01-22T10:30:00.349Z,3.57
2018-01-22T10:31:02.232Z,3.60
2018-01-22T10:32:04.117Z,3.61
2018-01-22T10:33:05.981Z,3.70
2018-01-22T10:34:20.112Z,3.68
2018-01-22T10:35:21.975Z,3.68
2018-01-22T10:36:23.839Z,3.66
2018-01-22T10:37:25.700Z,3.75
2018-01-22T10:38:27.505Z,3.72
2018-01-22T10:39:29.326Z,3.76
2018-01-22T10:40:31.208Z,3.73
2018-01-22T10:41:33.071Z,3.75
2018-01-22T10:42:34.931Z,3.83
2018-01-22T10:43:49.079Z,3.84
2018-01-22T10:44:50.931Z,3.76
2018-01-22T10:45:52.796Z,3.70
2018-01-22T10:46:54.661Z,3.68
2018-01-22T10:47:56.492Z,3.61
2018-01-22T10:48:58.314Z,3.54
2018-01-22T10:50:00.155Z,3.60
2018-01-22T10:51:01.972Z,3.68
2018-01-22T10:52:03.776Z,3.78
2018-01-22T10:53:17.931Z,3.83
2018-01-22T10:54:19.815Z,3.98
2018-01-22T10:55:21.698Z,3.94
2018-01-22T10:56:23.564Z,4.05
2018-01-22T10:57:25.374Z,4.00
2018-01-22T10:58:27.191Z,4.24
2018-01-22T10:59:29.062Z,4.23
2018-01-22T11:00:30.927Z,4.34
2018-01-22T11:01:32.809Z,4.41
2018-01-22T11:02:46.939Z,4.50
2018-01-22T11:03:48.804Z,4.58
2018-01-22T11:04:50.691Z,4.72
2018-01-22T11:05:52.553Z,4.72
2018-01-22T11:06:54.360Z,4.91
2018-01-22T11:07:56.184Z,4.80
2018-01-22T11:08:58.045Z,4.72
2018-01-22T11:09:59.932Z,4.84
2018-01-22T11:11:01.797Z,4.77
2018-01-22T11:12:15.953Z,4.80
2018-01-22T11:13:17.841Z,4.80
2018-01-22T11:14:19.721Z,4.82
2018-01-22T11:15:21.591Z,4.97
2018-01-22T11:16:23.414Z,4.96
2018-01-22T11:17:25.211Z,5.10
2018-01-22T11:18:27.081Z,5.06
2018-01-22T11:19:28.947Z,5.22
2018-01-22T11:20:30.830Z,5.22
2018-01-22T11:21:45.014Z,5.39
2018-01-22T11:22:46.883Z,5.51
2018-01-22T11:23:48.771Z,5.61
2018-01-22T11:24:50.656Z,5.75
2018-01-22T11:25:52.456Z,5.78
2018-01-22T11:26:54.260Z,5.79
2018-01-22T11:27:56.142Z,5.83
2018-01-22T11:28:58.016Z,5.81
2018-01-22T11:29:59.898Z,5.89
2018-01-22T11:31:14.035Z,5.99
2018-01-22T11:32:15.922Z,6.22
2018-01-22T11:33:17.794Z,6.41
2018-01-22T11:34:19.668Z,6.52
2018-01-22T11:35:21.464Z,6.67
2018-01-22T11:36:23.262Z,6.70
2018-01-22T11:37:25.148Z,6.73
2018-01-22T11:38:27.044Z,6.70
2018-01-22T11:39:28.911Z,6.62
2018-01-22T11:40:43.050Z,6.51
2018-01-22T11:41:44.935Z,6.38
2018-01-22T11:42:46.820Z,6.21
2018-01-22T11:43:48.681Z,6.15
2018-01-22T11:44:50.487Z,6.11
2018-01-22T11:45:52.286Z,6.04
2018-01-22T11:46:54.156Z,6.11
2018-01-22T11:47:56.049Z,6.22
2018-01-22T11:48:57.913Z,6.37
2018-01-22T11:50:12.047Z,6.46
2018-01-22T11:51:13.934Z,6.43
2018-01-22T11:52:15.823Z,6.58
2018-01-22T11:53:17.709Z,6.56
2018-01-22T11:54:19.533Z,6.74
2018-01-22T11:55:21.336Z,6.69
2018-01-22T11:56:23.201Z,6.66
2018-01-22T11:57:25.088Z,6.71
2018-01-22T11:58:26.950Z,6.58
2018-01-22T11:59:41.083Z,6.55
2018-01-22T12:00:42.954Z,6.46
2018-01-22T12:01:44.843Z,6.49
2018-01-22T12:02:46.730Z,6.54
2018-01-22T12:03:48.544Z,6.55
2018-01-22T12:04:50.340Z,6.52
2018-01-22T12:05:52.226Z,6.67
2018-01-22T12:06:54.090Z,6.56
2018-01-22T12:07:55.958Z,6.70
2018-01-22T12:09:10.114Z,6.70
2018-01-22T12:10:12.000Z,6.73
2018-01-22T12:11:13.895Z,6.64
2018-01-22T12:12:15.782Z,6.74
2018-01-22T12:13:17.605Z,6.64
2018-01-22T12:14:19.409Z,6.59
2018-01-22T12:15:21.274Z,6.49
2018-01-22T12:16:23.165Z,6.46
2018-01-22T12:17:25.048Z,6.34
2018-01-22T12:18:39.183Z,6.22
2018-01-22T12:19:41.081Z,6.19
2018-01-22T12:20:42.946Z,6.36
2018-01-22T12:21:44.813Z,6.25
2018-01-22T12:22:46.618Z,6.00
2018-01-22T12:23:48.439Z,6.04
2018-01-22T12:24:50.325Z,5.99
2018-01-22T12:25:52.192Z,6.04
2018-01-22T12:26:54.082Z,5.90
2018-01-22T12:28:08.235Z,5.83
2018-01-22T12:29:10.101Z,5.89
2018-01-22T12:30:11.990Z,5.89
2018-01-22T12:31:13.856Z,5.83
2018-01-22T12:32:15.681Z,5.85
2018-01-22T12:33:17.484Z,5.89
2018-01-22T12:34:19.373Z,5.65
2018-01-22T12:35:21.256Z,5.54
2018-01-22T12:36:23.128Z,5.45
2018-01-22T12:37:37.285Z,5.40
2018-01-22T12:38:39.172Z,5.27
2018-01-22T12:39:41.067Z,5.31
2018-01-22T12:40:42.949Z,5.38
2018-01-22T12:41:44.759Z,5.36
2018-01-22T12:42:46.576Z,5.39
2018-01-22T12:43:48.440Z,5.43
2018-01-22T12:44:50.330Z,5.33
2018-01-22T12:45:52.193Z,5.39
2018-01-22T12:47:06.351Z,5.30
2018-01-22T12:48:08.230Z,5.43
2018-01-22T12:49:10.081Z,5.38
2018-01-22T12:50:11.973Z,5.30
2018-01-22T12:51:13.797Z,5.24
2018-01-22T12:52:15.598Z,5.17
2018-01-22T12:53:17.486Z,5.12
2018-01-22T12:54:19.350Z,4.92
2018-01-22T12:55:21.213Z,5.02
2018-01-22T12:56:35.349Z,4.97
2018-01-22T12:57:37.230Z,4.96
2018-01-22T12:58:39.100Z,4.97
2018-01-22T12:59:40.983Z,4.86
2018-01-22T13:00:42.790Z,4.88
2018-01-22T13:01:44.601Z,4.94
2018-01-22T13:02:46.481Z,5.10
2018-01-22T13:03:48.343Z,5.06
2018-01-22T13:04:50.212Z,5.12
2018-01-22T13:06:04.368Z,5.10
2018-01-22T13:07:06.257Z,5.10
2018-01-22T13:08:08.150Z,5.15
2018-01-22T13:09:10.029Z,5.13
2018-01-22T13:10:11.830Z,5.24
2018-01-22T13:11:13.630Z,5.22
2018-01-22T13:12:15.495Z,5.21
2018-01-22T13:13:17.374Z,5.24
2018-01-22T13:14:19.254Z,5.13
2018-01-22T13:15:33.404Z,5.22
2018-01-22T13:16:35.276Z,5.13
2018-01-22T13:17:37.164Z,5.06
2018-01-22T13:18:39.029Z,5.18
2018-01-22T13:19:40.853Z,5.20
2018-01-22T13:20:42.651Z,5.27
2018-01-22T13:21:44.516Z,5.25
2018-01-22T13:22:46.388Z,5.38
2018-01-22T13:23:48.277Z,5.46
2018-01-22T13:25:02.430Z,5.60
2018-01-22T13:26:04.295Z,5.68
2018-01-22T13:27:06.176Z,5.71
2018-01-22T13:28:08.098Z,5.85
2018-01-22T13:29:09.902Z,5.82
2018-01-22T13:30:11.726Z,5.78
2018-01-22T13:31:13.616Z,5.56
2018-01-22T13:32:15.481Z,5.51
2018-01-22T13:33:17.366Z,5.46
2018-01-22T13:34:31.501Z,5.38
2018-01-22T13:35:33.383Z,5.38
2018-01-22T13:36:35.251Z,5.35
2018-01-22T13:37:37.120Z,5.40
2018-01-22T13:38:38.944Z,5.45
2018-01-22T13:39:40.746Z,5.28
2018-01-22T13:40:42.608Z,5.12
2018-01-22T13:41:44.493Z,5.13
2018-01-22T13:42:46.376Z,5.10
2018-01-22T13:44:00.574Z,5.10
2018-01-22T13:45:02.541Z,5.20
2018-01-22T13:46:04.426Z,5.33
2018-01-22T13:47:06.361Z,5.22
2018-01-22T13:48:08.184Z,5.17
2018-01-22T13:49:10.007Z,5.09
2018-01-22T13:50:11.874Z,5.02
2018-01-22T13:51:13.761Z,4.89
2018-01-22T13:52:15.627Z,4.86
2018-01-22T13:53:29.783Z,4.84
2018-01-22T13:54:31.670Z,4.85
2018-01-22T13:55:33.560Z,4.84
2018-01-22T13:56:35.441Z,4.89
2018-01-22T13:57:37.255Z,4.80
2018-01-22T13:58:39.044Z,4.80
2018-01-22T13:59:40.907Z,4.77
2018-01-22T14:00:42.778Z,4.78